Time;durP1;ratioP1;P1;durP2;ratioP2;P2;SDS_P1;SDS_P2;PMS_P1;PMS_P2;Temp;Humidity;BMP_temperature;BMP_pressure;BME280_temperature;BME280_humidity;BME280_pressure;Samples;Min_cycle;Max_cycle;Signal;HPM_P1;HPM_P2
2022/07/09 00:01:29;;;;;;;1999.90;999.90;;;;;;;14.90;100.00;100417.06;5044505;28;20052;-52
2022/07/09 00:04:14;;;;;;;1999.90;999.90;;;;;;;14.89;100.00;100410.94;5047136;28;20063;-51
2022/07/09 00:06:58;;;;;;;1999.90;999.90;;;;;;;14.84;100.00;100415.50;5041640;28;20055;-52
2022/07/09 00:09:43;;;;;;;1999.90;999.90;;;;;;;14.80;100.00;100411.25;5044278;28;20045;-52
2022/07/09 00:12:27;;;;;;;1999.90;999.90;;;;;;;14.91;100.00;100406.47;5046734;28;20142;-51
2022/07/09 00:15:12;;;;;;;1999.90;999.90;;;;;;;14.90;100.00;100406.53;5044448;28;20090;-51
2022/07/09 00:17:56;;;;;;;1999.90;999.90;;;;;;;14.91;100.00;100406.47;5044152;28;20665;-51
2022/07/09 00:20:40;;;;;;;1999.90;999.90;;;;;;;14.62;100.00;100404.78;5043959;28;20053;-51
2022/07/09 00:23:24;;;;;;;1999.90;999.90;;;;;;;14.79;100.00;100412.16;5045419;28;20081;-52
2022/07/09 00:26:09;;;;;;;1999.90;999.90;;;;;;;14.82;100.00;100411.19;5042999;28;20045;-51
2022/07/09 00:28:54;;;;;;;1999.90;999.90;;;;;;;14.90;100.00;100412.66;5044889;28;20553;-52
2022/07/09 00:31:38;;;;;;;1999.90;999.90;;;;;;;14.84;100.00;100420.78;5043064;28;20056;-53
2022/07/09 00:34:23;;;;;;;1999.90;999.90;;;;;;;14.84;100.00;100420.78;5043951;28;20381;-51
2022/07/09 00:37:08;;;;;;;1999.90;999.90;;;;;;;14.74;100.00;100400.88;5043947;28;20045;-51
2022/07/09 00:39:52;;;;;;;1999.90;999.90;;;;;;;14.86;100.00;100410.19;5044607;28;20075;-51
2022/07/09 00:42:37;;;;;;;1999.90;999.90;;;;;;;14.76;100.00;100407.00;5044478;28;20426;-52
2022/07/09 00:45:21;;;;;;;1999.90;999.90;;;;;;;14.78;100.00;100409.56;5040362;28;21023;-53
2022/07/09 00:48:06;;;;;;;1999.90;999.90;;;;;;;14.79;100.00;100406.88;5043441;28;20048;-51
2022/07/09 00:50:50;;;;;;;1999.90;999.90;;;;;;;14.70;100.00;100401.91;5045468;28;20047;-51
2022/07/09 00:53:35;;;;;;;1999.90;999.90;;;;;;;14.80;100.00;100403.34;5044133;28;20087;-53
2022/07/09 00:56:19;;;;;;;1999.90;999.90;;;;;;;14.80;100.00;100405.13;5046499;28;20118;-52
2022/07/09 00:59:09;;;;;;;1999.90;999.90;;;;;;;14.68;100.00;100395.81;5042928;28;20129;-52
2022/07/09 01:01:54;;;;;;;1999.90;999.90;;;;;;;14.69;100.00;100405.47;5045723;28;20048;-53
2022/07/09 01:04:39;;;;;;;1999.90;999.90;;;;;;;14.73;100.00;100389.50;5047674;28;20060;-52
2022/07/09 01:07:23;;;;;;;1999.90;999.90;;;;;;;14.63;100.00;100392.50;5048299;28;20087;-52
2022/07/09 01:10:08;;;;;;;1999.90;999.90;;;;;;;14.66;100.00;100393.25;5047776;28;20075;-51
2022/07/09 01:12:55;;;;;;;1999.90;999.90;;;;;;;14.66;100.00;100395.88;5049394;28;20060;-52
2022/07/09 01:15:39;;;;;;;1999.90;999.90;;;;;;;14.54;100.00;100391.00;5047533;28;20053;-51
2022/07/09 01:18:23;;;;;;;1999.90;999.90;;;;;;;14.47;100.00;100394.72;5048531;28;20425;-51
2022/07/09 01:21:08;;;;;;;1999.90;999.90;;;;;;;14.51;100.00;100392.88;5050506;28;20442;-51
2022/07/09 01:23:53;;;;;;;1999.90;999.90;;;;;;;14.53;100.00;100397.19;5048473;28;20401;-52
2022/07/09 01:26:37;;;;;;;1999.90;999.90;;;;;;;14.58;100.00;100389.97;5046242;28;20048;-52
2022/07/09 01:29:22;;;;;;;1999.90;999.90;;;;;;;14.67;100.00;100391.47;5048464;28;20041;-52
2022/07/09 01:32:07;;;;;;;1999.90;999.90;;;;;;;14.61;100.00;100386.38;5047465;28;20053;-52
2022/07/09 01:34:51;;;;;;;1999.90;999.90;;;;;;;14.65;100.00;100386.22;5045714;28;20395;-52
2022/07/09 01:37:36;;;;;;;1999.90;999.90;;;;;;;14.67;100.00;100383.56;5043752;28;20067;-54
2022/07/09 01:40:20;;;;;;;1999.90;999.90;;;;;;;14.68;100.00;100385.28;5043745;28;20443;-52
2022/07/09 01:43:05;;;;;;;1999.90;999.90;;;;;;;14.67;100.00;100383.56;5043028;28;20495;-51
2022/07/09 01:45:49;;;;;;;1999.90;999.90;;;;;;;14.65;100.00;100378.31;5044458;28;20053;-52
2022/07/09 01:48:35;;;;;;;1999.90;999.90;;;;;;;14.58;100.00;100383.84;5044106;28;20890;-52
2022/07/09 01:51:21;;;;;;;1999.90;999.90;;;;;;;14.50;100.00;100381.44;5043806;28;20095;-52
2022/07/09 01:54:06;;;;;;;1999.90;999.90;;;;;;;14.33;100.00;100368.81;5044643;28;20060;-52
2022/07/09 01:56:50;;;;;;;1999.90;999.90;;;;;;;14.32;100.00;100380.22;5044520;28;20055;-51
2022/07/09 01:59:35;;;;;;;1999.90;999.90;;;;;;;14.47;100.00;100365.72;5042436;28;20049;-51
2022/07/09 02:02:19;;;;;;;1999.90;999.90;;;;;;;14.55;100.00;100363.72;5043282;28;20985;-53
2022/07/09 02:05:04;;;;;;;1999.90;999.90;;;;;;;14.57;100.00;100372.44;5044799;28;20389;-51
2022/07/09 02:07:49;;;;;;;1999.90;999.90;;;;;;;14.43;100.00;100366.75;5043575;28;20059;-52
2022/07/09 02:10:33;;;;;;;1999.90;999.90;;;;;;;14.35;100.00;100360.84;5043782;28;20123;-52
2022/07/09 02:13:19;;;;;;;1999.90;999.90;;;;;;;14.24;100.00;100363.81;5043844;28;20436;-52
2022/07/09 02:16:04;;;;;;;1999.90;999.90;;;;;;;14.10;100.00;100358.97;5041402;28;20628;-51
2022/07/09 02:18:48;;;;;;;1999.90;999.90;;;;;;;14.08;100.00;100355.53;5042799;28;20083;-52
2022/07/09 02:21:33;;;;;;;1999.90;999.90;;;;;;;14.00;100.00;100354.88;5042662;28;20394;-53
2022/07/09 02:24:18;;;;;;;1999.90;999.90;;;;;;;13.93;100.00;100353.34;5040678;28;20056;-53
2022/07/09 02:27:03;;;;;;;1999.90;999.90;;;;;;;13.74;100.00;100353.03;5042939;28;20111;-53
2022/07/09 02:29:47;;;;;;;1999.90;999.90;;;;;;;13.50;100.00;100338.84;5041284;28;20095;-52
2022/07/09 02:32:32;;;;;;;1999.90;999.90;;;;;;;13.53;100.00;100350.13;5042738;28;20072;-52
2022/07/09 02:35:16;;;;;;;1999.90;999.90;;;;;;;13.65;100.00;100356.81;5041786;28;20055;-51
2022/07/09 02:38:01;;;;;;;1999.90;999.90;;;;;;;13.64;100.00;100352.44;5041389;28;20052;-52
2022/07/09 02:40:45;;;;;;;1999.90;999.90;;;;;;;13.62;100.00;100345.53;5039019;28;20693;-52
2022/07/09 02:43:30;;;;;;;1999.90;999.90;;;;;;;13.67;100.00;100348.88;5040742;28;20051;-53
2022/07/09 02:46:15;;;;;;;1999.90;999.90;;;;;;;13.70;100.00;100336.47;5040445;28;20418;-52
2022/07/09 02:49:00;;;;;;;1999.90;999.90;;;;;;;13.65;100.00;100335.75;5040774;28;20092;-51
2022/07/09 02:51:44;;;;;;;1999.90;999.90;;;;;;;13.53;100.00;100328.22;5041084;28;20056;-52
2022/07/09 02:54:28;;;;;;;1999.90;999.90;;;;;;;13.48;100.00;100338.84;5043386;28;20056;-51
2022/07/09 02:57:13;;;;;;;1999.90;999.90;;;;;;;13.52;100.00;100332.63;5038680;28;20055;-53
2022/07/09 02:59:57;;;;;;;1999.90;999.90;;;;;;;13.55;100.00;100327.28;5040722;28;20095;-51
2022/07/09 03:02:42;;;;;;;1999.90;999.90;;;;;;;13.53;100.00;100329.06;5044043;28;20041;-52
2022/07/09 03:05:28;;;;;;;1999.90;999.90;;;;;;;13.55;100.00;100324.63;5001695;28;1146781;-52
2022/07/09 03:08:12;;;;;;;1999.90;999.90;;;;;;;13.68;100.00;100319.00;5043710;28;20080;-52
2022/07/09 03:10:57;;;;;;;1999.90;999.90;;;;;;;13.62;100.00;100317.44;5045486;28;20100;-52
2022/07/09 03:13:41;;;;;;;1999.90;999.90;;;;;;;13.72;100.00;100315.38;5044574;28;20048;-52
2022/07/09 03:16:26;;;;;;;1999.90;999.90;;;;;;;13.74;100.00;100310.91;5043246;28;20048;-52
2022/07/09 03:19:10;;;;;;;1999.90;999.90;;;;;;;13.66;100.00;100316.41;5041454;28;20491;-51
2022/07/09 03:21:55;;;;;;;1999.90;999.90;;;;;;;13.54;100.00;100309.72;5041703;28;20049;-51
2022/07/09 03:24:39;;;;;;;1999.90;999.90;;;;;;;13.63;100.00;100313.03;5042058;28;20134;-52
2022/07/09 03:27:24;;;;;;;1999.90;999.90;;;;;;;13.66;100.00;100316.41;5041589;28;20056;-51
2022/07/09 03:30:08;;;;;;;1999.90;999.90;;;;;;;13.61;100.00;100313.06;5043037;28;20047;-52
2022/07/09 03:32:53;;;;;;;1999.90;999.90;;;;;;;13.61;100.00;100312.19;5042432;28;20057;-51
2022/07/09 03:35:39;;;;;;;1999.90;999.90;;;;;;;13.65;100.00;100317.34;5040744;28;20057;-52
2022/07/09 03:38:24;;;;;;;1999.90;999.90;;;;;;;13.84;100.00;100307.09;5043268;28;20048;-52
2022/07/09 03:41:08;;;;;;;1999.90;999.90;;;;;;;13.88;100.00;100294.72;5042491;28;20095;-53
2022/07/09 03:43:52;;;;;;;1999.90;999.90;;;;;;;13.70;100.00;100304.88;5042238;28;20051;-52
2022/07/09 03:46:37;;;;;;;1999.90;999.90;;;;;;;13.68;100.00;100306.72;5042535;28;20056;-53
2022/07/09 03:49:21;;;;;;;1999.90;999.90;;;;;;;13.72;100.00;100295.19;5040105;28;20534;-53
2022/07/09 03:52:06;;;;;;;1999.90;999.90;;;;;;;13.85;100.00;100292.19;5044594;28;20040;-52
2022/07/09 03:54:51;;;;;;;1999.90;999.90;;;;;;;13.86;100.00;100299.16;5044897;28;20416;-52
2022/07/09 03:57:35;;;;;;;1999.90;999.90;;;;;;;13.86;100.00;100291.25;5047833;28;20388;-52
2022/07/09 04:00:19;;;;;;;1999.90;999.90;;;;;;;13.65;100.00;100284.88;5046524;28;20044;-52
2022/07/09 04:03:03;;;;;;;1999.90;999.90;;;;;;;13.85;100.00;100289.56;5041753;28;20562;-52
2022/07/09 04:05:48;;;;;;;1999.90;999.90;;;;;;;13.87;100.00;100285.06;5044152;28;20052;-53
2022/07/09 04:08:32;;;;;;;1999.90;999.90;;;;;;;13.80;100.00;100290.53;5046610;28;20055;-52
2022/07/09 04:11:17;;;;;;;1999.90;999.90;;;;;;;13.70;100.00;100288.22;5044163;28;20407;-52
2022/07/09 04:14:02;;;;;;;1999.90;999.90;;;;;;;13.78;100.00;100278.34;5043083;28;20530;-52
2022/07/09 04:16:47;;;;;;;1999.90;999.90;;;;;;;13.98;100.00;100275.94;5045060;28;20534;-52
2022/07/09 04:19:31;;;;;;;1999.90;999.90;;;;;;;14.26;100.00;100282.94;5044848;28;20099;-53
2022/07/09 04:22:16;;;;;;;1999.90;999.90;;;;;;;14.51;100.00;100285.66;5045958;28;20049;-52
2022/07/09 04:25:01;;;;;;;1999.90;999.90;;;;;;;14.98;100.00;100292.84;5045795;28;20045;-53
2022/07/09 04:27:45;;;;;;;1999.90;999.90;;;;;;;15.22;100.00;100291.13;5047361;28;20345;-53
2022/07/09 04:30:30;;;;;;;1999.90;999.90;;;;;;;15.37;100.00;100279.97;5046640;28;20105;-53
2022/07/09 04:33:14;;;;;;;1999.90;999.90;;;;;;;15.68;100.00;100277.06;5047065;28;20107;-53
2022/07/09 04:35:59;;;;;;;1999.90;999.90;;;;;;;15.95;100.00;100277.75;5044571;28;20494;-52
2022/07/09 04:38:43;;;;;;;1999.90;999.90;;;;;;;16.03;100.00;100266.91;5047932;28;20045;-52
2022/07/09 04:41:28;;;;;;;1999.90;999.90;;;;;;;16.30;100.00;100255.19;5044787;28;20514;-53
2022/07/09 04:44:15;;;;;;;1999.90;999.90;;;;;;;16.50;100.00;100270.22;5045236;28;20273;-52
2022/07/09 04:46:59;;;;;;;1999.90;999.90;;;;;;;16.05;100.00;100270.34;5045661;28;20045;-52
2022/07/09 04:49:44;;;;;;;1999.90;999.90;;;;;;;15.48;100.00;100269.03;5046337;28;20049;-52
2022/07/09 04:52:28;;;;;;;1999.90;999.90;;;;;;;15.64;100.00;100271.03;5045666;28;20400;-51
2022/07/09 04:55:15;;;;;;;1999.90;999.90;;;;;;;16.06;100.00;100272.94;5043251;28;20565;-52
2022/07/09 04:57:59;;;;;;;1999.90;999.90;;;;;;;16.11;100.00;100265.66;5044281;28;20059;-51
2022/07/09 05:00:44;;;;;;;1999.90;999.90;;;;;;;16.07;100.00;100268.50;5041498;28;20056;-52
2022/07/09 05:03:29;;;;;;;1999.90;999.90;;;;;;;16.30;100.00;100270.19;5042212;28;20099;-52
2022/07/09 05:06:17;;;;;;;1999.90;999.90;;;;;;;16.89;100.00;100271.25;5040707;28;20918;-52
2022/07/09 05:09:02;;;;;;;1999.90;999.90;;;;;;;17.43;100.00;100264.44;5042438;28;20047;-52
2022/07/09 05:11:47;;;;;;;1999.90;999.90;;;;;;;17.68;100.00;100267.66;5039469;28;20056;-53
2022/07/09 05:14:31;;;;;;;1999.90;999.90;;;;;;;16.96;100.00;100267.41;5042675;28;20049;-52
2022/07/09 05:17:16;;;;;;;1999.90;999.90;;;;;;;17.01;100.00;100262.78;5042627;28;20049;-52
2022/07/09 05:20:00;;;;;;;1999.90;999.90;;;;;;;17.07;100.00;100264.31;5041143;28;20111;-53
2022/07/09 05:22:45;;;;;;;1999.90;999.90;;;;;;;16.75;100.00;100272.72;5042566;28;20049;-53
2022/07/09 05:25:29;;;;;;;1999.90;999.90;;;;;;;17.84;100.00;100264.28;5042056;28;20050;-52
2022/07/09 05:28:14;;;;;;;1999.90;999.90;;;;;;;17.68;100.00;100270.31;5042032;28;20403;-52
2022/07/09 05:30:58;;;;;;;1999.90;999.90;;;;;;;17.58;100.00;100260.19;5041255;28;20060;-53
2022/07/09 05:33:43;;;;;;;1999.90;999.90;;;;;;;17.70;100.00;100251.66;5041545;28;20056;-53
2022/07/09 05:36:30;;;;;;;1999.90;999.90;;;;;;;17.65;100.00;100264.28;5039161;28;20133;-54
2022/07/09 05:39:15;;;;;;;1999.90;999.90;;;;;;;17.69;100.00;100257.91;5040715;28;20901;-53
2022/07/09 05:41:59;;;;;;;1999.90;999.90;;;;;;;17.91;100.00;100249.84;5039368;28;20057;-53
2022/07/09 05:44:44;;;;;;;1999.90;999.90;;;;;;;17.49;100.00;100258.84;5043975;28;20048;-52
2022/07/09 05:47:28;;;;;;;1999.90;999.90;;;;;;;17.55;100.00;100257.69;5046687;28;20041;-53
2022/07/09 05:50:12;;;;;;;1999.90;999.90;;;;;;;17.67;100.00;100249.16;5047296;28;20048;-52
2022/07/09 05:52:57;;;;;;;1999.90;999.90;;;;;;;17.78;100.00;100248.69;5045770;28;20063;-52
2022/07/09 05:55:41;;;;;;;1999.90;999.90;;;;;;;18.11;100.00;100254.16;5047651;28;20059;-52
2022/07/09 05:58:26;;;;;;;1999.90;999.90;;;;;;;18.76;100.00;100257.09;5048899;28;20400;-52
2022/07/09 06:01:11;;;;;;;1999.90;999.90;;;;;;;19.28;100.00;100254.34;5044279;28;20099;-53
2022/07/09 06:03:56;;;;;;;1999.90;999.90;;;;;;;18.94;100.00;100256.13;5046854;28;20049;-54
2022/07/09 06:06:40;;;;;;;1999.90;999.90;;;;;;;19.29;100.00;100240.97;5044683;28;20057;-54
2022/07/09 06:09:24;;;;;;;1999.90;999.90;;;;;;;19.48;100.00;100242.63;5041454;28;20130;-53
2022/07/09 06:12:09;;;;;;;1999.90;999.90;;;;;;;19.27;100.00;100240.22;5043542;28;20052;-53
2022/07/09 06:14:53;;;;;;;1999.90;999.90;;;;;;;19.39;100.00;100234.22;5041318;28;20048;-52
2022/07/09 06:17:38;;;;;;;1999.90;999.90;;;;;;;18.96;100.00;100241.00;5041043;28;20056;-53
2022/07/09 06:20:23;;;;;;;1999.90;999.90;;;;;;;18.61;100.00;100234.84;5039711;28;20052;-55
2022/07/09 06:23:08;;;;;;;1999.90;999.90;;;;;;;18.45;100.00;100234.75;5044819;28;20044;-54
2022/07/09 06:25:52;;;;;;;1999.90;999.90;;;;;;;18.66;100.00;100236.31;5045759;28;20132;-53
2022/07/09 06:28:37;;;;;;;1999.90;999.90;;;;;;;18.36;100.00;100240.53;5044405;28;20380;-53
2022/07/09 06:31:22;;;;;;;1999.90;999.90;;;;;;;18.30;100.00;100236.41;5042610;28;20045;-54
2022/07/09 06:34:07;;;;;;;1999.90;999.90;;;;;;;19.26;100.00;100234.97;5044036;28;20067;-53
2022/07/09 06:36:52;;;;;;;1999.90;999.90;;;;;;;19.39;100.00;100230.72;5044243;28;20499;-53
2022/07/09 06:39:45;;;;;;;1999.90;999.90;;;;;;;19.49;100.00;100229.25;5043343;28;20131;-54
2022/07/09 06:42:30;;;;;;;1999.90;999.90;;;;;;;19.33;100.00;100226.59;5042986;28;20064;-54
2022/07/09 06:45:18;;;;;;;1999.90;999.90;;;;;;;19.47;100.00;100233.81;5045530;28;20053;-53
2022/07/09 06:48:02;;;;;;;1999.90;999.90;;;;;;;20.27;100.00;100227.50;5045201;28;20191;-54
2022/07/09 06:50:47;;;;;;;1999.90;999.90;;;;;;;19.43;100.00;100234.91;5043554;28;20104;-54
2022/07/09 06:53:31;;;;;;;1999.90;999.90;;;;;;;19.59;100.00;100227.78;5044873;28;20503;-53
2022/07/09 06:56:15;;;;;;;1999.90;999.90;;;;;;;21.06;100.00;100229.00;5044012;28;20060;-53
2022/07/09 06:59:00;;;;;;;1999.90;999.90;;;;;;;20.76;100.00;100224.59;5044721;28;20460;-54
2022/07/09 07:01:45;;;;;;;1999.90;999.90;;;;;;;21.07;100.00;100228.06;5040914;28;20060;-53
2022/07/09 07:04:29;;;;;;;1999.90;999.90;;;;;;;20.69;100.00;100220.59;5042936;28;20118;-53
2022/07/09 07:07:14;;;;;;;1999.90;999.90;;;;;;;19.07;100.00;100216.53;5043294;28;20052;-54
2022/07/09 07:09:58;;;;;;;1999.90;999.90;;;;;;;19.29;100.00;100218.88;5038593;28;20063;-54
2022/07/09 07:12:42;;;;;;;1999.90;999.90;;;;;;;19.32;100.00;100224.88;5041098;28;20388;-55
2022/07/09 07:15:26;;;;;;;1999.90;999.90;;;;;;;19.31;100.00;100207.25;5039817;28;20134;-54
2022/07/09 07:18:11;;;;;;;1999.90;999.90;;;;;;;19.99;100.00;100217.63;5043029;28;20060;-54
2022/07/09 07:20:55;;;;;;;1999.90;999.90;;;;;;;20.47;100.00;100207.72;5041525;28;20148;-53
2022/07/09 07:23:40;;;;;;;1999.90;999.90;;;;;;;21.78;100.00;100211.13;5039683;28;20099;-53
2022/07/09 07:26:24;;;;;;;1999.90;999.90;;;;;;;21.23;100.00;100206.66;5044735;28;20055;-54
2022/07/09 07:29:09;;;;;;;1999.90;999.90;;;;;;;20.64;100.00;100220.03;5044027;28;20037;-54
2022/07/09 07:31:53;;;;;;;1999.90;999.90;;;;;;;20.10;100.00;100217.00;5043671;28;20507;-54
2022/07/09 07:34:37;;;;;;;1999.90;999.90;;;;;;;20.08;100.00;100216.22;5044021;28;20052;-54
2022/07/09 07:37:22;;;;;;;1999.90;999.90;;;;;;;19.82;100.00;100223.91;5042920;28;20059;-54
2022/07/09 07:40:07;;;;;;;1999.90;999.90;;;;;;;19.68;100.00;100217.66;5043453;28;20048;-55
2022/07/09 07:42:52;;;;;;;1999.90;999.90;;;;;;;20.23;100.00;100220.66;5041214;28;20132;-54
2022/07/09 07:45:36;;;;;;;1999.90;999.90;;;;;;;20.01;100.00;100220.19;5041438;28;20094;-53
2022/07/09 07:48:21;;;;;;;1999.90;999.90;;;;;;;19.92;100.00;100218.03;5043601;28;20468;-57
2022/07/09 07:51:05;;;;;;;1999.90;999.90;;;;;;;20.38;100.00;100221.56;5044290;28;20069;-54
2022/07/09 07:53:49;;;;;;;1999.90;999.90;;;;;;;20.99;100.00;100209.91;5043093;28;20453;-54
2022/07/09 07:56:36;;;;;;;1999.90;999.90;;;;;;;21.38;100.00;100218.16;5045247;28;20140;-54
2022/07/09 07:59:21;;;;;;;1999.90;999.90;;;;;;;21.73;100.00;100215.06;5042234;28;20053;-54
2022/07/09 08:02:06;;;;;;;1999.90;999.90;;;;;;;20.92;100.00;100234.31;5044547;28;20055;-53
2022/07/09 08:04:50;;;;;;;1999.90;999.90;;;;;;;21.37;100.00;100224.44;5045282;28;20107;-55
2022/07/09 08:07:35;;;;;;;1999.90;999.90;;;;;;;20.66;100.00;100225.25;5043581;28;20254;-53
2022/07/09 08:10:19;;;;;;;1999.90;999.90;;;;;;;20.74;100.00;100217.69;5041195;28;20048;-54
2022/07/09 08:13:03;;;;;;;1999.90;999.90;;;;;;;20.57;100.00;100216.00;5042728;28;20044;-54
2022/07/09 08:15:48;;;;;;;1999.90;999.90;;;;;;;20.83;100.00;100219.78;5042151;28;20071;-54
2022/07/09 08:18:33;;;;;;;1999.90;999.90;;;;;;;20.46;100.00;100223.75;5043855;28;20114;-54
2022/07/09 08:21:17;;;;;;;1999.90;999.90;;;;;;;19.98;100.00;100218.53;5043835;28;20679;-54
2022/07/09 08:24:04;;;;;;;1999.90;999.90;;;;;;;20.06;100.00;100218.97;5042222;28;20041;-54
2022/07/09 08:26:48;;;;;;;1999.90;999.90;;;;;;;20.23;100.00;100219.78;5041062;28;20076;-54
2022/07/09 08:29:33;;;;;;;1999.90;999.90;;;;;;;20.27;100.00;100216.84;5043823;28;20057;-54
2022/07/09 08:32:18;;;;;;;1999.90;999.90;;;;;;;19.83;100.00;100212.31;5046116;28;20059;-53
2022/07/09 08:35:03;;;;;;;1999.90;999.90;;;;;;;20.19;100.00;100208.47;5045663;28;20052;-54
2022/07/09 08:37:48;;;;;;;1999.90;999.90;;;;;;;20.41;100.00;100213.41;5042795;28;20037;-52
2022/07/09 08:40:32;;;;;;;1999.90;999.90;;;;;;;20.20;100.00;100207.53;5044002;28;20048;-53
2022/07/09 08:43:17;;;;;;;1999.90;999.90;;;;;;;20.56;100.00;100201.00;5043973;28;20087;-53
2022/07/09 08:46:02;;;;;;;1999.90;999.90;;;;;;;20.49;100.00;100216.44;5042339;28;20049;-53
2022/07/09 08:48:46;;;;;;;1999.90;999.90;;;;;;;20.17;100.00;100214.84;5044264;28;20052;-52
2022/07/09 08:51:32;;;;;;;1999.90;999.90;;;;;;;20.43;100.00;100215.94;5042908;28;20049;-52
2022/07/09 08:54:16;;;;;;;1999.90;999.90;;;;;;;20.44;100.00;100213.22;5042854;28;20071;-54
2022/07/09 08:57:01;;;;;;;1999.90;999.90;;;;;;;20.31;100.00;100206.88;5044605;28;20037;-53
2022/07/09 08:59:45;;;;;;;1999.90;999.90;;;;;;;20.90;100.00;100197.16;5043533;28;20056;-54
2022/07/09 09:02:39;;;;;;;1999.90;999.90;;;;;;;21.39;100.00;100201.25;5042200;28;20053;-54
2022/07/09 09:05:23;;;;;;;1999.90;999.90;;;;;;;21.94;100.00;100201.19;5040911;28;20079;-54
2022/07/09 09:08:24;;;;;;;1999.90;999.90;;;;;;;22.00;95.68;100193.72;5068177;28;20048;-54
2022/07/09 09:11:12;;;;;;;1999.90;999.90;;;;;;;22.68;95.44;100198.03;5039205;28;20459;-55
2022/07/09 09:13:57;;;;;;;1999.90;999.90;;;;;;;22.75;91.91;100192.19;5038985;28;20049;-54
2022/07/09 09:16:42;;;;;;;1999.90;999.90;;;;;;;22.38;85.49;100189.34;5040328;28;20063;-55
2022/07/09 09:19:27;;;;;;;1999.90;999.90;;;;;;;22.68;84.35;100168.66;5038613;28;20052;-53
2022/07/09 09:22:15;;;;;;;1999.90;999.90;;;;;;;22.92;84.39;100171.44;5039996;28;20053;-54
2022/07/09 09:25:02;;;;;;;1999.90;999.90;;;;;;;23.42;82.58;100165.16;5043599;28;20060;-53
2022/07/09 09:28:06;;;;;;;1999.90;999.90;;;;;;;23.56;81.53;100170.38;5046686;28;20145;-54
2022/07/09 09:30:51;;;;;;;1999.90;999.90;;;;;;;22.98;83.26;100171.06;5045836;28;20045;-53
2022/07/09 09:33:35;;;;;;;1999.90;999.90;;;;;;;22.66;80.44;100165.28;5046203;28;20148;-54
2022/07/09 09:36:31;;;;;;;1999.90;999.90;;;;;;;23.99;85.13;100167.19;5046614;28;20127;-54
2022/07/09 09:39:23;;;;;;;1999.90;999.90;;;;;;;24.31;82.39;100161.22;5043966;28;22383;-54
2022/07/09 09:42:13;;;;;;;1999.90;999.90;;;;;;;23.81;83.76;100154.34;5044949;28;20060;-55
2022/07/09 09:44:59;;;;;;;1999.90;999.90;;;;;;;23.21;85.83;100154.22;5043198;28;20047;-54
2022/07/09 09:47:48;;;;;;;1999.90;999.90;;;;;;;23.35;82.29;100155.88;5053699;28;20051;-55
2022/07/09 09:50:33;;;;;;;1999.90;999.90;;;;;;;23.16;81.25;100155.50;5043464;28;20084;-55
2022/07/09 09:53:21;;;;;;;1999.90;999.90;;;;;;;24.12;76.98;100153.75;5045284;28;20040;-53
2022/07/09 09:56:06;;;;;;;1999.90;999.90;;;;;;;23.78;79.80;100145.56;5045215;28;20059;-53
2022/07/09 09:58:51;;;;;;;1999.90;999.90;;;;;;;24.22;78.20;100140.53;5044021;28;20498;-55
2022/07/09 10:01:36;;;;;;;1999.90;999.90;;;;;;;24.35;76.17;100135.94;5044137;28;20057;-54
2022/07/09 10:04:21;;;;;;;1999.90;999.90;;;;;;;24.77;72.21;100138.09;5044441;28;20056;-54
2022/07/09 10:07:07;;;;;;;1999.90;999.90;;;;;;;25.60;73.73;100127.75;5046117;28;20080;-53
2022/07/09 10:09:58;;;;;;;1999.90;999.90;;;;;;;25.35;69.17;100120.03;5044917;28;20086;-54
2022/07/09 10:12:42;;;;;;;1999.90;999.90;;;;;;;25.73;68.23;100124.03;5044478;28;20057;-55
2022/07/09 10:15:27;;;;;;;1999.90;999.90;;;;;;;25.74;65.50;100121.25;5043907;28;20538;-53
2022/07/09 10:18:11;;;;;;;1999.90;999.90;;;;;;;26.35;66.26;100129.47;5049350;28;20407;-54
2022/07/09 10:20:57;;;;;;;1999.90;999.90;;;;;;;25.40;66.75;100118.66;5046934;28;20049;-54
2022/07/09 10:23:50;;;;;;;1999.90;999.90;;;;;;;26.22;68.46;100106.50;5046527;28;20047;-55
2022/07/09 10:26:46;;;;;;;1999.90;999.90;;;;;;;25.48;66.09;100106.44;5043524;28;20103;-54
2022/07/09 10:29:31;;;;;;;1999.90;999.90;;;;;;;25.39;69.68;100108.09;5045085;28;20056;-54
2022/07/09 10:32:28;;;;;;;1999.90;999.90;;;;;;;24.32;68.01;100098.69;5045498;28;20392;-54
2022/07/09 10:35:13;;;;;;;1999.90;999.90;;;;;;;24.23;70.30;100100.25;5043659;28;20480;-54
2022/07/09 10:37:57;;;;;;;1999.90;999.90;;;;;;;24.97;70.87;100088.28;5045913;28;20045;-53
2022/07/09 10:40:46;;;;;;;1999.90;999.90;;;;;;;25.32;66.04;100093.50;5047484;28;20049;-53
2022/07/09 10:43:44;;;;;;;1999.90;999.90;;;;;;;25.01;70.65;100090.56;5042866;28;20091;-55
2022/07/09 10:46:30;;;;;;;1999.90;999.90;;;;;;;23.40;70.18;100097.63;5044536;28;20499;-54
2022/07/09 10:49:15;;;;;;;1999.90;999.90;;;;;;;25.08;66.84;100096.28;5046098;28;20636;-55
2022/07/09 10:52:00;;;;;;;1999.90;999.90;;;;;;;25.19;60.25;100090.97;5045469;28;20539;-53
2022/07/09 10:54:47;;;;;;;1999.90;999.90;;;;;;;25.79;60.46;100099.41;5042734;28;20052;-53
2022/07/09 10:57:35;;;;;;;1999.90;999.90;;;;;;;25.05;59.13;100100.06;5045427;28;20624;-55
2022/07/09 11:00:22;;;;;;;1999.90;999.90;;;;;;;25.85;62.21;100093.56;5044970;28;20037;-55
2022/07/09 11:03:06;;;;;;;1999.90;999.90;;;;;;;26.02;62.19;100089.44;5043318;28;20052;-55
2022/07/09 11:05:51;;;;;;;1999.90;999.90;;;;;;;23.21;63.51;100100.78;5044904;28;20052;-54
2022/07/09 11:08:35;;;;;;;1999.90;999.90;;;;;;;24.84;62.80;100088.41;5045029;28;20048;-53
2022/07/09 11:11:24;;;;;;;1999.90;999.90;;;;;;;25.29;61.91;100091.91;5044010;28;20049;-54
2022/07/09 11:14:09;;;;;;;1999.90;999.90;;;;;;;26.45;59.75;100067.78;5044308;28;20056;-54
2022/07/09 11:16:56;;;;;;;1999.90;999.90;;;;;;;26.21;62.89;100089.56;5042011;28;20427;-55
2022/07/09 11:19:41;;;;;;;1999.90;999.90;;;;;;;25.81;60.58;100086.75;5030831;28;20045;-54
2022/07/09 11:22:26;;;;;;;1999.90;999.90;;;;;;;25.40;60.22;100081.13;5043226;28;20059;-54
2022/07/09 11:25:10;;;;;;;1999.90;999.90;;;;;;;24.64;65.35;100077.47;5045144;28;20671;-55
2022/07/09 11:27:56;;;;;;;1999.90;999.90;;;;;;;23.22;67.55;100075.78;5044746;28;20056;-53
2022/07/09 11:30:40;;;;;;;1999.90;999.90;;;;;;;23.82;68.33;100082.00;5044060;28;20097;-54
2022/07/09 11:33:26;;;;;;;1999.90;999.90;;;;;;;23.94;64.70;100066.88;5045566;28;20488;-54
2022/07/09 11:36:10;;;;;;;1999.90;999.90;;;;;;;24.55;64.85;100064.81;5045773;28;20121;-54
2022/07/09 11:38:55;;;;;;;1999.90;999.90;;;;;;;25.26;61.37;100065.34;5042381;28;20515;-54
2022/07/09 11:41:41;;;;;;;1999.90;999.90;;;;;;;24.73;63.69;100065.16;5043537;28;20727;-55
2022/07/09 11:44:35;;;;;;;1999.90;999.90;;;;;;;24.22;64.18;100065.59;5041925;28;20113;-53
2022/07/09 11:47:38;;;;;;;1999.90;999.90;;;;;;;24.10;66.31;100062.03;5043077;28;20037;-54
2022/07/09 11:50:25;;;;;;;1999.90;999.90;;;;;;;23.56;65.11;100066.13;5042876;28;20072;-54
2022/07/09 11:53:25;;;;;;;1999.90;999.90;;;;;;;23.69;65.90;100062.53;5044189;28;20126;-54
2022/07/09 11:56:10;;;;;;;1999.90;999.90;;;;;;;23.04;66.23;100066.41;5042557;28;20446;-54
2022/07/09 11:58:54;;;;;;;1999.90;999.90;;;;;;;23.10;67.94;100074.84;5043441;28;20048;-54
2022/07/09 12:01:39;;;;;;;1999.90;999.90;;;;;;;23.19;67.81;100067.13;5042983;28;20407;-53